Time,TemperatureF,DewpointF,PressureIn,WindDirection,WindDirectionDegrees,WindSpeedMPH,WindSpeedGustMPH,Humidity,HourlyPrecipIn,Conditions,Clouds,dailyrainin,SoftwareType,DateUTC
2013-01-10 00:03:00,34.0,28.0,30.50,South,190,5.0,-999.0,80,-99.99,,,-99.99,,2013-01-10 05:03:00,
2013-01-10 00:12:00,32.0,27.0,30.51,SSW,200,3.0,-999.0,80,-99.99,,,-99.99,,2013-01-10 05:12:00,
2013-01-10 00:22:00,30.0,27.0,30.51,North,0,0.0,-999.0,86,-99.99,,,-99.99,,2013-01-10 05:22:00,
2013-01-10 00:33:00,30.0,27.0,30.52,SSW,200,3.0,-999.0,86,-99.99,,,-99.99,,2013-01-10 05:33:00,
2013-01-10 00:42:00,30.0,27.0,30.52,SSW,210,3.0,-999.0,86,-99.99,,,-99.99,,2013-01-10 05:42:00,
2013-01-10 00:52:00,28.0,27.0,30.52,North,0,0.0,-999.0,92,-99.99,,,-99.99,,2013-01-10 05:52:00,
2013-01-10 01:02:00,28.0,27.0,30.52,North,0,0.0,-999.0,92,-99.99,,,-99.99,,2013-01-10 06:02:00,
2013-01-10 01:12:00,28.0,27.0,30.52,North,0,0.0,-999.0,92,-99.99,,,-99.99,,2013-01-10 06:12:00,
2013-01-10 01:22:00,28.0,25.0,30.52,North,0,0.0,-999.0,86,-99.99,,,-99.99,,2013-01-10 06:22:00,
2013-01-10 01:32:00,28.0,27.0,30.52,North,0,0.0,-999.0,92,-99.99,,,-99.99,,2013-01-10 06:32:00,
2013-01-10 01:42:00,28.0,27.0,30.52,North,0,0.0,-999.0,92,-99.99,,,-99.99,,2013-01-10 06:42:00,
2013-01-10 01:52:00,27.0,25.0,30.52,North,0,0.0,-999.0,92,-99.99,,,-99.99,,2013-01-10 06:52:00,
2013-01-10 02:02:00,27.0,25.0,30.52,North,0,0.0,-999.0,92,-99.99,,,-99.99,,2013-01-10 07:02:00,
2013-01-10 02:12:00,27.0,25.0,30.52,North,0,0.0,-999.0,92,-99.99,,,-99.99,,2013-01-10 07:12:00,
2013-01-10 02:22:00,27.0,25.0,30.51,North,0,0.0,-999.0,92,-99.99,,,-99.99,,2013-01-10 07:22:00,
2013-01-10 02:32:00,27.0,25.0,30.51,North,0,0.0,-999.0,92,-99.99,,,-99.99,,2013-01-10 07:32:00,
2013-01-10 02:42:00,27.0,25.0,30.51,North,0,0.0,-999.0,92,-99.99,,,-99.99,,2013-01-10 07:42:00,
2013-01-10 02:52:00,27.0,25.0,30.51,North,0,0.0,-999.0,92,-99.99,,,-99.99,,2013-01-10 07:52:00,
2013-01-10 03:02:00,27.0,25.0,30.51,North,0,0.0,-999.0,92,-99.99,,,-99.99,,2013-01-10 08:02:00,
2013-01-10 03:12:00,27.0,25.0,30.51,NE,40,3.0,-999.0,92,-99.99,,,-99.99,,2013-01-10 08:12:00,
2013-01-10 03:22:00,27.0,25.0,30.51,North,0,0.0,-999.0,92,-99.99,,,-99.99,,2013-01-10 08:22:00,
2013-01-10 03:32:00,27.0,25.0,30.51,North,0,0.0,-999.0,92,-99.99,,,-99.99,,2013-01-10 08:32:00,
2013-01-10 03:42:00,27.0,25.0,30.51,North,0,0.0,-999.0,92,-99.99,,,-99.99,,2013-01-10 08:42:00,
2013-01-10 03:52:00,27.0,25.0,30.51,North,0,0.0,-999.0,92,-99.99,,,-99.99,,2013-01-10 08:52:00,
2013-01-10 04:02:00,27.0,25.0,30.51,North,0,0.0,-999.0,92,-99.99,,,-99.99,,2013-01-10 09:02:00,
2013-01-10 04:12:00,27.0,25.0,30.51,North,0,0.0,-999.0,92,-99.99,,,-99.99,,2013-01-10 09:12:00,
2013-01-10 04:22:00,27.0,25.0,30.50,North,0,0.0,-999.0,92,-99.99,,,-99.99,,2013-01-10 09:22:00,
2013-01-10 04:32:00,27.0,25.0,30.50,North,0,0.0,-999.0,92,-99.99,,,-99.99,,2013-01-10 09:32:00,
2013-01-10 04:42:00,27.0,25.0,30.51,North,0,0.0,-999.0,92,-99.99,,,-99.99,,2013-01-10 09:42:00,
2013-01-10 04:52:00,27.0,25.0,30.50,North,0,0.0,-999.0,92,-99.99,,,-99.99,,2013-01-10 09:52:00,
2013-01-10 05:03:00,25.0,25.0,30.50,North,0,0.0,-999.0,100,-99.99,,,-99.99,,2013-01-10 10:03:00,
2013-01-10 05:12:00,27.0,25.0,30.50,North,0,0.0,-999.0,92,-99.99,,,-99.99,,2013-01-10 10:12:00,
2013-01-10 05:22:00,25.0,25.0,30.50,North,0,0.0,-999.0,100,-99.99,,,-99.99,,2013-01-10 10:22:00,
2013-01-10 05:32:00,27.0,25.0,30.50,North,0,0.0,-999.0,92,-99.99,,,-99.99,,2013-01-10 10:32:00,
2013-01-10 05:42:00,25.0,25.0,30.50,North,0,0.0,-999.0,100,-99.99,,,-99.99,,2013-01-10 10:42:00,
2013-01-10 05:52:00,27.0,25.0,30.50,North,0,0.0,-999.0,92,-99.99,,,-99.99,,2013-01-10 10:52:00,
2013-01-10 06:02:00,27.0,25.0,30.50,North,0,0.0,-999.0,92,-99.99,,,-99.99,,2013-01-10 11:02:00,
2013-01-10 06:12:00,27.0,25.0,30.50,North,0,0.0,-999.0,92,-99.99,,,-99.99,,2013-01-10 11:12:00,
2013-01-10 06:22:00,25.0,25.0,30.51,North,0,0.0,-999.0,100,-99.99,,,-99.99,,2013-01-10 11:22:00,
2013-01-10 06:33:00,25.0,23.0,30.51,North,0,0.0,-999.0,92,-99.99,,,-99.99,,2013-01-10 11:33:00,
2013-01-10 06:43:00,25.0,23.0,30.51,North,0,0.0,-999.0,92,-99.99,,,-99.99,,2013-01-10 11:43:00,
2013-01-10 06:52:00,25.0,25.0,30.51,North,0,0.0,-999.0,100,-99.99,,,-99.99,,2013-01-10 11:52:00,
2013-01-10 07:03:00,27.0,25.0,30.51,North,0,0.0,-999.0,92,-99.99,,,-99.99,,2013-01-10 12:03:00,
2013-01-10 07:12:00,25.0,23.0,30.51,North,0,0.0,-999.0,92,-99.99,,,-99.99,,2013-01-10 12:12:00,
2013-01-10 07:22:00,27.0,25.0,30.52,North,0,0.0,-999.0,92,-99.99,,,-99.99,,2013-01-10 12:22:00,
2013-01-10 07:33:00,27.0,25.0,30.52,North,0,0.0,-999.0,92,-99.99,,,-99.99,,2013-01-10 12:33:00,
2013-01-10 07:43:00,27.0,25.0,30.52,North,0,0.0,-999.0,92,-99.99,,,-99.99,,2013-01-10 12:43:00,
2013-01-10 07:53:00,27.0,25.0,30.52,North,0,0.0,-999.0,92,-99.99,,,-99.99,,2013-01-10 12:53:00,
2013-01-10 08:02:00,27.0,25.0,30.53,North,0,0.0,-999.0,92,-99.99,,,-99.99,,2013-01-10 13:02:00,
2013-01-10 08:12:00,27.0,25.0,30.53,North,0,0.0,-999.0,92,-99.99,,,-99.99,,2013-01-10 13:12:00,
2013-01-10 08:22:00,28.0,27.0,30.53,East,100,3.0,-999.0,92,-99.99,,,-99.99,,2013-01-10 13:22:00,
2013-01-10 08:32:00,28.0,27.0,30.53,ESE,110,3.0,-999.0,92,-99.99,,,-99.99,,2013-01-10 13:32:00,
2013-01-10 08:42:00,27.0,25.0,30.53,East,100,3.0,-999.0,92,-99.99,,,-99.99,,2013-01-10 13:42:00,
2013-01-10 08:52:00,28.0,27.0,30.52,ENE,70,3.0,-999.0,92,-99.99,,,-99.99,,2013-01-10 13:52:00,
2013-01-10 09:02:00,30.0,28.0,30.52,ENE,70,5.0,-999.0,92,-99.99,,,-99.99,,2013-01-10 14:02:00,
2013-01-10 09:12:00,30.0,28.0,30.52,East,80,6.0,-999.0,92,-99.99,,,-99.99,,2013-01-10 14:12:00,
2013-01-10 09:22:00,30.0,28.0,30.52,East,80,5.0,-999.0,92,-99.99,,,-99.99,,2013-01-10 14:22:00,
2013-01-10 09:33:00,30.0,28.0,30.51,East,80,5.0,-999.0,92,-99.99,,,-99.99,,2013-01-10 14:33:00,
2013-01-10 09:43:00,32.0,28.0,30.52,East,90,5.0,-999.0,86,-99.99,,,-99.99,,2013-01-10 14:43:00,
2013-01-10 09:53:00,34.0,28.0,30.52,East,80,5.0,-999.0,80,-99.99,,,-99.99,,2013-01-10 14:53:00,
2013-01-10 10:03:00,34.0,28.0,30.52,East,100,5.0,-999.0,80,-99.99,,,-99.99,,2013-01-10 15:03:00,
2013-01-10 10:12:00,34.0,28.0,30.52,East,90,7.0,-999.0,80,-99.99,,,-99.99,,2013-01-10 15:12:00,
2013-01-10 10:23:00,36.0,27.0,30.51,East,80,9.0,-999.0,69,-99.99,,,-99.99,,2013-01-10 15:23:00,
2013-01-10 10:33:00,36.0,27.0,30.50,East,80,10.0,-999.0,69,-99.99,,,-99.99,,2013-01-10 15:33:00,
2013-01-10 10:43:00,36.0,27.0,30.50,East,80,9.0,-999.0,69,-99.99,,,-99.99,,2013-01-10 15:43:00,
2013-01-10 10:53:00,36.0,28.0,30.50,East,90,9.0,-999.0,74,-99.99,,,-99.99,,2013-01-10 15:53:00,
2013-01-10 11:03:00,36.0,28.0,30.50,East,100,8.0,-999.0,74,-99.99,,,-99.99,,2013-01-10 16:03:00,
2013-01-10 11:13:00,37.0,28.0,30.51,East,100,8.0,-999.0,69,-99.99,,,-99.99,,2013-01-10 16:13:00,
2013-01-10 11:23:00,37.0,28.0,30.51,ESE,120,7.0,-999.0,69,-99.99,,,-99.99,,2013-01-10 16:23:00,
2013-01-10 11:33:00,37.0,28.0,30.50,ESE,110,8.0,-999.0,69,-99.99,,,-99.99,,2013-01-10 16:33:00,
2013-01-10 11:43:00,37.0,28.0,30.50,East,100,7.0,-999.0,69,-99.99,,,-99.99,,2013-01-10 16:43:00,
2013-01-10 11:53:00,37.0,28.0,30.49,ESE,110,9.0,-999.0,69,-99.99,,,-99.99,,2013-01-10 16:53:00,
2013-01-10 12:03:00,37.0,28.0,30.49,ESE,120,7.0,-999.0,69,-99.99,,,-99.99,,2013-01-10 17:03:00,
2013-01-10 12:12:00,37.0,28.0,30.48,ESE,110,9.0,-999.0,69,-99.99,,,-99.99,,2013-01-10 17:12:00,
2013-01-10 12:22:00,37.0,28.0,30.47,East,100,9.0,-999.0,69,-99.99,,,-99.99,,2013-01-10 17:22:00,
2013-01-10 12:33:00,39.0,28.0,30.46,ESE,110,9.0,-999.0,64,-99.99,,,-99.99,,2013-01-10 17:33:00,
2013-01-10 12:42:00,39.0,28.0,30.46,ESE,110,8.0,-999.0,64,-99.99,,,-99.99,,2013-01-10 17:42:00,
2013-01-10 12:53:00,39.0,27.0,30.46,ESE,110,9.0,-999.0,60,-99.99,,,-99.99,,2013-01-10 17:53:00,
2013-01-10 13:03:00,39.0,27.0,30.45,ESE,110,9.0,-999.0,60,-99.99,,,-99.99,,2013-01-10 18:03:00,
2013-01-10 13:12:00,39.0,27.0,30.45,East,100,9.0,-999.0,60,-99.99,,,-99.99,,2013-01-10 18:12:00,
2013-01-10 13:23:00,39.0,28.0,30.43,ESE,110,10.0,-999.0,64,-99.99,,,-99.99,,2013-01-10 18:23:00,
2013-01-10 13:33:00,39.0,28.0,30.42,ESE,110,12.0,17.0,64,-99.99,,,-99.99,,2013-01-10 18:33:00,
2013-01-10 13:43:00,39.0,27.0,30.42,ESE,110,10.0,17.0,60,-99.99,,,-99.99,,2013-01-10 18:43:00,
2013-01-10 13:52:00,39.0,28.0,30.42,ESE,120,10.0,16.0,64,-99.99,,,-99.99,,2013-01-10 18:52:00,
2013-01-10 14:03:00,39.0,27.0,30.42,ESE,120,7.0,-999.0,60,-99.99,,,-99.99,,2013-01-10 19:03:00,
2013-01-10 14:13:00,39.0,28.0,30.40,ESE,120,8.0,-999.0,64,-99.99,,,-99.99,,2013-01-10 19:13:00,
2013-01-10 14:23:00,39.0,28.0,30.39,East,100,10.0,17.0,64,-99.99,,,-99.99,,2013-01-10 19:23:00,
2013-01-10 14:33:00,39.0,28.0,30.38,East,90,12.0,-999.0,64,-99.99,,,-99.99,,2013-01-10 19:33:00,
2013-01-10 14:43:00,39.0,28.0,30.38,East,100,9.0,-999.0,64,-99.99,,,-99.99,,2013-01-10 19:43:00,
2013-01-10 14:53:00,39.0,28.0,30.38,ESE,120,10.0,-999.0,64,-99.99,,,-99.99,,2013-01-10 19:53:00,
2013-01-10 15:03:00,39.0,28.0,30.37,East,100,9.0,-999.0,64,-99.99,,,-99.99,,2013-01-10 20:03:00,
2013-01-10 15:13:00,39.0,28.0,30.37,ESE,120,10.0,-999.0,64,-99.99,,,-99.99,,2013-01-10 20:13:00,
2013-01-10 15:24:00,37.0,28.0,30.36,ESE,110,9.0,-999.0,69,-99.99,,,-99.99,,2013-01-10 20:24:00,
2013-01-10 15:33:00,37.0,28.0,30.36,ESE,110,8.0,-999.0,69,-99.99,,,-99.99,,2013-01-10 20:33:00,
2013-01-10 15:43:00,37.0,28.0,30.36,ESE,110,8.0,-999.0,69,-99.99,,,-99.99,,2013-01-10 20:43:00,
2013-01-10 15:53:00,37.0,28.0,30.36,East,90,9.0,-999.0,69,-99.99,,,-99.99,,2013-01-10 20:53:00,
2013-01-10 16:04:00,37.0,28.0,30.35,East,100,8.0,-999.0,69,-99.99,,,-99.99,,2013-01-10 21:04:00,
2013-01-10 16:13:00,37.0,28.0,30.34,East,90,10.0,-999.0,69,-99.99,,,-99.99,,2013-01-10 21:13:00,
2013-01-10 16:23:00,37.0,28.0,30.35,ESE,110,10.0,-999.0,69,-99.99,,,-99.99,,2013-01-10 21:23:00,
2013-01-10 16:33:00,37.0,28.0,30.36,SE,130,8.0,-999.0,69,-99.99,,,-99.99,,2013-01-10 21:33:00,
2013-01-10 16:42:00,37.0,28.0,30.35,ESE,120,8.0,-999.0,69,-99.99,,,-99.99,,2013-01-10 21:42:00,
2013-01-10 16:53:00,37.0,28.0,30.35,ESE,120,8.0,-999.0,69,-99.99,,,-99.99,,2013-01-10 21:53:00,
2013-01-10 17:04:00,37.0,28.0,30.34,ESE,110,8.0,-999.0,69,-99.99,,,-99.99,,2013-01-10 22:04:00,
2013-01-10 17:13:00,37.0,30.0,30.34,ESE,120,8.0,-999.0,74,-99.99,,,-99.99,,2013-01-10 22:13:00,
2013-01-10 17:26:00,37.0,30.0,30.33,East,100,6.0,-999.0,74,-99.99,,,-99.99,,2013-01-10 22:26:00,
2013-01-10 17:33:00,37.0,30.0,30.33,ESE,110,8.0,-999.0,74,-99.99,,,-99.99,,2013-01-10 22:33:00,
2013-01-10 17:43:00,37.0,30.0,30.32,ESE,120,7.0,-999.0,74,-99.99,,,-99.99,,2013-01-10 22:43:00,
2013-01-10 18:03:00,37.0,30.0,30.30,East,100,10.0,-999.0,74,-99.99,,,-99.99,,2013-01-10 23:03:00,
2013-01-10 18:13:00,37.0,28.0,30.30,ESE,120,10.0,-999.0,69,-99.99,,,-99.99,,2013-01-10 23:13:00,
2013-01-10 18:23:00,37.0,28.0,30.30,ESE,120,10.0,16.0,69,-99.99,,,-99.99,,2013-01-10 23:23:00,
2013-01-10 18:33:00,37.0,28.0,30.29,ESE,120,12.0,-999.0,69,-99.99,,,-99.99,,2013-01-10 23:33:00,
2013-01-10 18:43:00,39.0,28.0,30.29,SE,130,9.0,-999.0,64,-99.99,,,-99.99,,2013-01-10 23:43:00,
2013-01-10 18:53:00,39.0,28.0,30.28,ESE,120,10.0,16.0,64,-99.99,,,-99.99,,2013-01-10 23:53:00,
2013-01-10 19:03:00,39.0,28.0,30.28,ESE,120,8.0,-999.0,64,-99.99,,,-99.99,,2013-01-11 00:03:00,
2013-01-10 19:13:00,39.0,28.0,30.28,SE,130,8.0,-999.0,64,-99.99,,,-99.99,,2013-01-11 00:13:00,
2013-01-10 19:23:00,39.0,28.0,30.27,ESE,120,12.0,-999.0,64,-99.99,,,-99.99,,2013-01-11 00:23:00,
2013-01-10 19:33:00,39.0,28.0,30.26,SE,130,10.0,-999.0,64,-99.99,,,-99.99,,2013-01-11 00:33:00,
2013-01-10 19:42:00,39.0,28.0,30.26,SE,130,14.0,-999.0,64,-99.99,,,-99.99,,2013-01-11 00:42:00,
2013-01-10 19:52:00,39.0,28.0,30.25,SE,130,13.0,-999.0,64,-99.99,,,-99.99,,2013-01-11 00:52:00,
2013-01-10 20:03:00,39.0,28.0,30.25,SE,130,15.0,20.0,64,-99.99,,,-99.99,,2013-01-11 01:03:00,
2013-01-10 20:13:00,39.0,28.0,30.24,SE,140,15.0,20.0,64,-99.99,,,-99.99,,2013-01-11 01:13:00,
2013-01-10 20:23:00,39.0,28.0,30.23,SE,130,16.0,-999.0,64,-99.99,,,-99.99,,2013-01-11 01:23:00,
2013-01-10 20:34:00,39.0,28.0,30.22,SE,130,14.0,-999.0,64,-99.99,,,-99.99,,2013-01-11 01:34:00,
2013-01-10 20:43:00,39.0,28.0,30.21,SE,130,13.0,-999.0,64,-99.99,,,-99.99,,2013-01-11 01:43:00,
2013-01-10 20:53:00,39.0,30.0,30.21,SE,140,15.0,-999.0,69,-99.99,,,-99.99,,2013-01-11 01:53:00,
2013-01-10 21:03:00,39.0,30.0,30.21,SE,130,12.0,-999.0,69,-99.99,,,-99.99,,2013-01-11 02:03:00,
2013-01-10 21:13:00,39.0,30.0,30.20,SE,130,13.0,20.0,69,-99.99,,,-99.99,,2013-01-11 02:13:00,
2013-01-10 21:23:00,39.0,30.0,30.19,SE,130,13.0,20.0,69,-99.99,,,-99.99,,2013-01-11 02:23:00,
2013-01-10 21:33:00,39.0,30.0,30.18,SE,130,15.0,-999.0,69,-99.99,,,-99.99,,2013-01-11 02:33:00,
2013-01-10 21:43:00,39.0,30.0,30.18,SE,130,14.0,-999.0,69,-99.99,,,-99.99,,2013-01-11 02:43:00,
2013-01-10 21:53:00,41.0,28.0,30.17,SE,130,9.0,17.0,60,-99.99,,,-99.99,,2013-01-11 02:53:00,
2013-01-10 22:03:00,41.0,28.0,30.17,SE,130,10.0,-999.0,60,-99.99,,,-99.99,,2013-01-11 03:03:00,
2013-01-10 22:12:00,41.0,28.0,30.16,SE,130,13.0,-999.0,60,-99.99,,,-99.99,,2013-01-11 03:12:00,
2013-01-10 22:23:00,43.0,27.0,30.15,SE,130,15.0,23.0,52,-99.99,,,-99.99,,2013-01-11 03:23:00,
2013-01-10 22:33:00,43.0,27.0,30.14,SE,140,16.0,-999.0,52,-99.99,,,-99.99,,2013-01-11 03:33:00,
2013-01-10 22:43:00,43.0,27.0,30.14,SE,140,17.0,22.0,52,-99.99,,,-99.99,,2013-01-11 03:43:00,
2013-01-10 22:53:00,43.0,27.0,30.14,SE,140,13.0,-999.0,52,-99.99,,,-99.99,,2013-01-11 03:53:00,
2013-01-10 23:02:00,43.0,27.0,30.13,SE,140,13.0,-999.0,52,-99.99,,,-99.99,,2013-01-11 04:02:00,
2013-01-10 23:12:00,41.0,27.0,30.13,SE,140,12.0,-999.0,56,-99.99,,,-99.99,,2013-01-11 04:12:00,
2013-01-10 23:22:00,41.0,28.0,30.12,SE,140,12.0,-999.0,60,-99.99,,,-99.99,,2013-01-11 04:22:00,
2013-01-10 23:33:00,41.0,28.0,30.12,SE,140,14.0,-999.0,60,-99.99,,,-99.99,,2013-01-11 04:33:00,
2013-01-10 23:43:00,41.0,28.0,30.12,SSE,150,14.0,-999.0,60,-99.99,,,-99.99,,2013-01-11 04:43:00,
2013-01-10 23:52:00,41.0,28.0,30.11,SE,140,13.0,-999.0,60,-99.99,,,-99.99,,2013-01-11 04:52:00,